Flomaton, Alabama
Current Conditions -  °F | °C
As of 1:56 PM on Tuesday 21 Oct 2014 (Local Time) from KNSE Reporting Station
Few Clouds Few Clouds  
Wind Chill: 79°   Ceiling: Unl
Heat Index: 79°   Visibility: 10mi
Dew Point: 50°   Wind: 8mph
Humidity: 36%   Direction: 30°NNE
Pressure: 29.97"   Gusts: NA
Location:  31°N, 87.26°W
Report Text: KNSE 211856Z 03007KT 10SM FEW250 26/10 A2997 RMK AO2 SLP136 T02610100 $
Loading
Personal Weather Stations






























Interactive Weather Map
Tropical Storm Tracking
New forecast layout! Learn more

10-Day Weather Forecast

Advertisements
Track Severe Weather on mobile